sensor_id;sensor_type;location;lat;lon;timestamp;temperature;humidity
45435;DHT22;31183;47.404;8.500;2023-11-21T00:01:05;10.70;99.90
45435;DHT22;31183;47.404;8.500;2023-11-21T00:03:35;10.70;99.90
45435;DHT22;31183;47.404;8.500;2023-11-21T00:06:02;10.60;99.90
45435;DHT22;31183;47.404;8.500;2023-11-21T00:08:29;10.60;99.90
45435;DHT22;31183;47.404;8.500;2023-11-21T00:10:56;10.60;99.90
45435;DHT22;31183;47.404;8.500;2023-11-21T00:13:23;10.60;99.90
45435;DHT22;31183;47.404;8.500;2023-11-21T00:15:50;10.50;99.90
45435;DHT22;31183;47.404;8.500;2023-11-21T00:18:17;10.50;99.90
45435;DHT22;31183;47.404;8.500;2023-11-21T00:20:44;10.50;99.90
45435;DHT22;31183;47.404;8.500;2023-11-21T00:23:10;10.50;99.90
45435;DHT22;31183;47.404;8.500;2023-11-21T00:25:37;10.50;99.90
45435;DHT22;31183;47.404;8.500;2023-11-21T00:28:04;10.50;99.90
45435;DHT22;31183;47.404;8.500;2023-11-21T00:30:31;10.50;99.90
45435;DHT22;31183;47.404;8.500;2023-11-21T00:32:58;10.50;99.90
45435;DHT22;31183;47.404;8.500;2023-11-21T00:35:25;10.50;99.90
45435;DHT22;31183;47.404;8.500;2023-11-21T00:37:52;10.50;99.90
45435;DHT22;31183;47.404;8.500;2023-11-21T00:40:19;10.60;99.90
45435;DHT22;31183;47.404;8.500;2023-11-21T00:42:48;10.60;99.90
45435;DHT22;31183;47.404;8.500;2023-11-21T00:45:15;10.60;99.90
45435;DHT22;31183;47.404;8.500;2023-11-21T00:47:42;10.70;99.90
45435;DHT22;31183;47.404;8.500;2023-11-21T00:50:09;10.70;99.90
45435;DHT22;31183;47.404;8.500;2023-11-21T00:52:36;10.70;99.90
45435;DHT22;31183;47.404;8.500;2023-11-21T00:55:04;10.70;99.90
45435;DHT22;31183;47.404;8.500;2023-11-21T00:57:34;10.70;99.90
45435;DHT22;31183;47.404;8.500;2023-11-21T01:00:01;10.70;99.90
45435;DHT22;31183;47.404;8.500;2023-11-21T01:02:29;10.70;99.90
45435;DHT22;31183;47.404;8.500;2023-11-21T01:04:56;10.60;99.90
45435;DHT22;31183;47.404;8.500;2023-11-21T01:07:22;10.70;99.90
45435;DHT22;31183;47.404;8.500;2023-11-21T01:09:49;10.70;99.90
45435;DHT22;31183;47.404;8.500;2023-11-21T01:12:16;10.70;99.90
45435;DHT22;31183;47.404;8.500;2023-11-21T01:14:43;10.70;99.90
45435;DHT22;31183;47.404;8.500;2023-11-21T01:17:11;10.70;99.90
45435;DHT22;31183;47.404;8.500;2023-11-21T01:19:38;10.70;99.90
45435;DHT22;31183;47.404;8.500;2023-11-21T01:22:05;10.70;99.90
45435;DHT22;31183;47.404;8.500;2023-11-21T01:24:32;10.70;99.90
45435;DHT22;31183;47.404;8.500;2023-11-21T01:26:58;10.70;99.90
45435;DHT22;31183;47.404;8.500;2023-11-21T01:29:25;10.70;99.90
45435;DHT22;31183;47.404;8.500;2023-11-21T01:31:52;10.80;99.90
45435;DHT22;31183;47.404;8.500;2023-11-21T01:34:19;10.80;99.90
45435;DHT22;31183;47.404;8.500;2023-11-21T01:36:46;10.70;99.90
45435;DHT22;31183;47.404;8.500;2023-11-21T01:39:13;10.80;99.90
45435;DHT22;31183;47.404;8.500;2023-11-21T01:41:42;10.80;99.90
45435;DHT22;31183;47.404;8.500;2023-11-21T01:44:10;10.70;99.90
45435;DHT22;31183;47.404;8.500;2023-11-21T01:46:38;10.70;99.90
45435;DHT22;31183;47.404;8.500;2023-11-21T01:49:05;10.70;99.90
45435;DHT22;31183;47.404;8.500;2023-11-21T01:51:32;10.70;99.90
45435;DHT22;31183;47.404;8.500;2023-11-21T01:53:59;10.70;99.90
45435;DHT22;31183;47.404;8.500;2023-11-21T01:56:26;10.60;99.90
45435;DHT22;31183;47.404;8.500;2023-11-21T01:58:52;10.60;99.90
45435;DHT22;31183;47.404;8.500;2023-11-21T02:01:20;10.60;99.90
45435;DHT22;31183;47.404;8.500;2023-11-21T02:03:47;10.60;99.90
45435;DHT22;31183;47.404;8.500;2023-11-21T02:06:14;10.70;99.90
45435;DHT22;31183;47.404;8.500;2023-11-21T02:08:40;10.70;99.90
45435;DHT22;31183;47.404;8.500;2023-11-21T02:11:10;10.70;99.90
45435;DHT22;31183;47.404;8.500;2023-11-21T02:13:39;10.70;99.90
45435;DHT22;31183;47.404;8.500;2023-11-21T02:16:11;10.80;99.90
45435;DHT22;31183;47.404;8.500;2023-11-21T02:18:39;10.80;99.90
45435;DHT22;31183;47.404;8.500;2023-11-21T02:21:06;10.80;99.90
45435;DHT22;31183;47.404;8.500;2023-11-21T02:23:33;10.90;99.90
45435;DHT22;31183;47.404;8.500;2023-11-21T02:26:00;10.90;99.90
45435;DHT22;31183;47.404;8.500;2023-11-21T02:28:30;11.00;99.90
45435;DHT22;31183;47.404;8.500;2023-11-21T02:30:57;11.00;99.90
45435;DHT22;31183;47.404;8.500;2023-11-21T02:33:25;11.00;99.90
45435;DHT22;31183;47.404;8.500;2023-11-21T02:35:52;11.00;99.90
45435;DHT22;31183;47.404;8.500;2023-11-21T02:38:21;11.00;99.90
45435;DHT22;31183;47.404;8.500;2023-11-21T02:40:48;11.00;99.90
45435;DHT22;31183;47.404;8.500;2023-11-21T02:43:16;11.00;99.90
45435;DHT22;31183;47.404;8.500;2023-11-21T02:45:42;11.00;99.90
45435;DHT22;31183;47.404;8.500;2023-11-21T02:48:09;10.90;99.90
45435;DHT22;31183;47.404;8.500;2023-11-21T02:50:36;10.90;99.90
45435;DHT22;31183;47.404;8.500;2023-11-21T02:53:04;10.80;99.90
45435;DHT22;31183;47.404;8.500;2023-11-21T02:55:32;10.70;99.90
45435;DHT22;31183;47.404;8.500;2023-11-21T02:58:02;10.60;99.90
45435;DHT22;31183;47.404;8.500;2023-11-21T03:00:30;10.50;99.90
45435;DHT22;31183;47.404;8.500;2023-11-21T03:02:56;10.40;99.90
45435;DHT22;31183;47.404;8.500;2023-11-21T03:05:24;10.40;99.90
45435;DHT22;31183;47.404;8.500;2023-11-21T03:07:50;10.40;99.90
45435;DHT22;31183;47.404;8.500;2023-11-21T03:10:17;10.40;99.90
45435;DHT22;31183;47.404;8.500;2023-11-21T03:12:44;10.40;99.90
45435;DHT22;31183;47.404;8.500;2023-11-21T03:15:11;10.40;99.90
45435;DHT22;31183;47.404;8.500;2023-11-21T03:17:37;10.40;99.90
45435;DHT22;31183;47.404;8.500;2023-11-21T03:20:05;10.40;99.90
45435;DHT22;31183;47.404;8.500;2023-11-21T03:22:32;10.30;99.90
45435;DHT22;31183;47.404;8.500;2023-11-21T03:24:59;10.30;99.90
45435;DHT22;31183;47.404;8.500;2023-11-21T03:27:26;10.20;99.90
45435;DHT22;31183;47.404;8.500;2023-11-21T03:29:52;10.10;99.90
45435;DHT22;31183;47.404;8.500;2023-11-21T03:32:20;10.10;99.90
45435;DHT22;31183;47.404;8.500;2023-11-21T03:34:57;10.00;99.90
45435;DHT22;31183;47.404;8.500;2023-11-21T03:37:26;9.90;99.90
45435;DHT22;31183;47.404;8.500;2023-11-21T03:39:55;9.90;99.90
45435;DHT22;31183;47.404;8.500;2023-11-21T03:42:23;9.90;99.90
45435;DHT22;31183;47.404;8.500;2023-11-21T03:44:50;9.90;99.90
45435;DHT22;31183;47.404;8.500;2023-11-21T03:47:16;9.90;99.90
45435;DHT22;31183;47.404;8.500;2023-11-21T03:49:43;10.00;99.90
45435;DHT22;31183;47.404;8.500;2023-11-21T03:52:10;10.00;99.90
45435;DHT22;31183;47.404;8.500;2023-11-21T03:54:36;10.00;99.90
45435;DHT22;31183;47.404;8.500;2023-11-21T03:57:03;10.00;99.90
45435;DHT22;31183;47.404;8.500;2023-11-21T03:59:30;9.90;99.90
45435;DHT22;31183;47.404;8.500;2023-11-21T04:01:57;9.90;99.90
45435;DHT22;31183;47.404;8.500;2023-11-21T04:04:23;9.90;99.90
45435;DHT22;31183;47.404;8.500;2023-11-21T04:06:50;9.80;99.90
45435;DHT22;31183;47.404;8.500;2023-11-21T04:09:18;9.80;99.90
45435;DHT22;31183;47.404;8.500;2023-11-21T04:11:45;9.80;99.90
45435;DHT22;31183;47.404;8.500;2023-11-21T04:14:12;9.70;99.90
45435;DHT22;31183;47.404;8.500;2023-11-21T04:16:38;9.70;99.90
45435;DHT22;31183;47.404;8.500;2023-11-21T04:19:06;9.60;99.90
45435;DHT22;31183;47.404;8.500;2023-11-21T04:21:33;9.60;99.90
45435;DHT22;31183;47.404;8.500;2023-11-21T04:24:00;9.60;99.90
45435;DHT22;31183;47.404;8.500;2023-11-21T04:26:27;9.60;99.90
45435;DHT22;31183;47.404;8.500;2023-11-21T04:28:53;9.50;99.90
45435;DHT22;31183;47.404;8.500;2023-11-21T04:31:20;9.50;99.90
45435;DHT22;31183;47.404;8.500;2023-11-21T04:33:47;9.60;99.90
45435;DHT22;31183;47.404;8.500;2023-11-21T04:36:13;9.60;99.90
45435;DHT22;31183;47.404;8.500;2023-11-21T04:38:40;9.40;99.90
45435;DHT22;31183;47.404;8.500;2023-11-21T04:41:09;9.40;99.90
45435;DHT22;31183;47.404;8.500;2023-11-21T04:43:35;9.30;99.90
45435;DHT22;31183;47.404;8.500;2023-11-21T04:46:02;9.30;99.90
45435;DHT22;31183;47.404;8.500;2023-11-21T04:48:29;9.30;99.90
45435;DHT22;31183;47.404;8.500;2023-11-21T04:50:55;9.30;99.90
45435;DHT22;31183;47.404;8.500;2023-11-21T04:53:22;9.30;99.90
45435;DHT22;31183;47.404;8.500;2023-11-21T04:55:49;9.30;99.90
45435;DHT22;31183;47.404;8.500;2023-11-21T04:58:16;9.30;99.90
45435;DHT22;31183;47.404;8.500;2023-11-21T05:00:42;9.40;99.90
45435;DHT22;31183;47.404;8.500;2023-11-21T05:03:09;9.40;99.90
45435;DHT22;31183;47.404;8.500;2023-11-21T05:05:36;9.40;99.90
45435;DHT22;31183;47.404;8.500;2023-11-21T05:08:03;9.50;99.90
45435;DHT22;31183;47.404;8.500;2023-11-21T05:10:30;9.50;99.90
45435;DHT22;31183;47.404;8.500;2023-11-21T05:12:57;9.60;99.90
45435;DHT22;31183;47.404;8.500;2023-11-21T05:15:24;9.60;99.90
45435;DHT22;31183;47.404;8.500;2023-11-21T05:17:51;9.60;99.90
45435;DHT22;31183;47.404;8.500;2023-11-21T05:20:19;9.60;99.90
45435;DHT22;31183;47.404;8.500;2023-11-21T05:22:47;9.60;99.90
45435;DHT22;31183;47.404;8.500;2023-11-21T05:25:17;9.50;99.90
45435;DHT22;31183;47.404;8.500;2023-11-21T05:27:48;9.50;99.90
45435;DHT22;31183;47.404;8.500;2023-11-21T05:30:14;9.50;99.90
45435;DHT22;31183;47.404;8.500;2023-11-21T05:32:41;9.60;99.90
45435;DHT22;31183;47.404;8.500;2023-11-21T05:35:13;9.60;99.90
45435;DHT22;31183;47.404;8.500;2023-11-21T05:37:43;9.80;99.90
45435;DHT22;31183;47.404;8.500;2023-11-21T05:40:10;9.80;99.90
45435;DHT22;31183;47.404;8.500;2023-11-21T05:42:36;9.90;99.90
45435;DHT22;31183;47.404;8.500;2023-11-21T05:45:05;9.90;99.90
45435;DHT22;31183;47.404;8.500;2023-11-21T05:47:44;10.00;99.90
45435;DHT22;31183;47.404;8.500;2023-11-21T05:50:14;10.00;99.90
45435;DHT22;31183;47.404;8.500;2023-11-21T05:52:45;10.00;99.90
45435;DHT22;31183;47.404;8.500;2023-11-21T05:55:13;10.00;99.90
45435;DHT22;31183;47.404;8.500;2023-11-21T05:57:42;10.00;99.90
45435;DHT22;31183;47.404;8.500;2023-11-21T06:00:11;10.00;99.90
45435;DHT22;31183;47.404;8.500;2023-11-21T06:02:44;10.00;99.90
45435;DHT22;31183;47.404;8.500;2023-11-21T06:05:11;10.00;99.90
45435;DHT22;31183;47.404;8.500;2023-11-21T06:07:38;10.00;99.90
45435;DHT22;31183;47.404;8.500;2023-11-21T06:10:07;10.00;99.90
45435;DHT22;31183;47.404;8.500;2023-11-21T06:12:38;9.90;99.90
45435;DHT22;31183;47.404;8.500;2023-11-21T06:15:06;9.90;99.90
45435;DHT22;31183;47.404;8.500;2023-11-21T06:17:36;9.90;99.90
45435;DHT22;31183;47.404;8.500;2023-11-21T06:20:04;9.90;99.90
45435;DHT22;31183;47.404;8.500;2023-11-21T06:22:37;9.90;99.90
45435;DHT22;31183;47.404;8.500;2023-11-21T06:25:04;10.00;99.90
45435;DHT22;31183;47.404;8.500;2023-11-21T06:27:41;10.00;99.90
45435;DHT22;31183;47.404;8.500;2023-11-21T06:30:08;10.00;99.90
45435;DHT22;31183;47.404;8.500;2023-11-21T06:32:36;10.00;99.90
45435;DHT22;31183;47.404;8.500;2023-11-21T06:35:06;10.00;99.90
45435;DHT22;31183;47.404;8.500;2023-11-21T06:37:34;9.90;99.90
45435;DHT22;31183;47.404;8.500;2023-11-21T06:40:00;9.90;99.90
45435;DHT22;31183;47.404;8.500;2023-11-21T06:42:27;9.80;99.90
45435;DHT22;31183;47.404;8.500;2023-11-21T06:44:55;9.90;99.90
45435;DHT22;31183;47.404;8.500;2023-11-21T06:47:24;9.80;99.90
45435;DHT22;31183;47.404;8.500;2023-11-21T06:49:54;9.80;99.90
45435;DHT22;31183;47.404;8.500;2023-11-21T06:52:21;9.80;99.90
45435;DHT22;31183;47.404;8.500;2023-11-21T06:54:48;9.90;99.90
45435;DHT22;31183;47.404;8.500;2023-11-21T06:57:18;9.90;99.90
45435;DHT22;31183;47.404;8.500;2023-11-21T06:59:44;9.90;99.90
45435;DHT22;31183;47.404;8.500;2023-11-21T07:02:11;9.90;99.90
45435;DHT22;31183;47.404;8.500;2023-11-21T07:04:38;9.90;99.90
45435;DHT22;31183;47.404;8.500;2023-11-21T07:07:06;10.00;99.90
45435;DHT22;31183;47.404;8.500;2023-11-21T07:09:33;10.00;99.90
45435;DHT22;31183;47.404;8.500;2023-11-21T07:12:00;10.10;99.90
45435;DHT22;31183;47.404;8.500;2023-11-21T07:14:28;10.10;99.90
45435;DHT22;31183;47.404;8.500;2023-11-21T07:16:54;10.10;99.90
45435;DHT22;31183;47.404;8.500;2023-11-21T07:19:21;10.00;99.90
45435;DHT22;31183;47.404;8.500;2023-11-21T07:21:48;10.00;99.90
45435;DHT22;31183;47.404;8.500;2023-11-21T07:24:17;10.00;99.90
45435;DHT22;31183;47.404;8.500;2023-11-21T07:26:44;10.00;99.90
45435;DHT22;31183;47.404;8.500;2023-11-21T07:29:11;10.00;99.90
45435;DHT22;31183;47.404;8.500;2023-11-21T07:31:38;10.00;99.90
45435;DHT22;31183;47.404;8.500;2023-11-21T07:34:05;10.00;99.90
45435;DHT22;31183;47.404;8.500;2023-11-21T07:36:32;10.00;99.90
45435;DHT22;31183;47.404;8.500;2023-11-21T07:38:58;10.00;99.90
45435;DHT22;31183;47.404;8.500;2023-11-21T07:41:25;10.00;99.90
45435;DHT22;31183;47.404;8.500;2023-11-21T07:43:57;10.00;99.90
45435;DHT22;31183;47.404;8.500;2023-11-21T07:46:26;10.00;99.90
45435;DHT22;31183;47.404;8.500;2023-11-21T07:48:53;10.00;99.90
45435;DHT22;31183;47.404;8.500;2023-11-21T07:51:21;10.10;99.90
45435;DHT22;31183;47.404;8.500;2023-11-21T07:53:48;10.10;99.90
45435;DHT22;31183;47.404;8.500;2023-11-21T07:56:15;10.10;99.90
45435;DHT22;31183;47.404;8.500;2023-11-21T07:58:41;10.00;99.90
45435;DHT22;31183;47.404;8.500;2023-11-21T08:01:08;10.00;99.90
45435;DHT22;31183;47.404;8.500;2023-11-21T08:03:35;10.00;99.90
45435;DHT22;31183;47.404;8.500;2023-11-21T08:06:02;10.00;99.90
45435;DHT22;31183;47.404;8.500;2023-11-21T08:08:32;10.00;99.90
45435;DHT22;31183;47.404;8.500;2023-11-21T08:10:59;10.00;99.90
45435;DHT22;31183;47.404;8.500;2023-11-21T08:13:29;10.10;99.90
45435;DHT22;31183;47.404;8.500;2023-11-21T08:15:58;10.00;99.90
45435;DHT22;31183;47.404;8.500;2023-11-21T08:18:29;10.00;99.90
45435;DHT22;31183;47.404;8.500;2023-11-21T08:20:56;10.00;99.90
45435;DHT22;31183;47.404;8.500;2023-11-21T08:23:23;10.00;99.90
45435;DHT22;31183;47.404;8.500;2023-11-21T08:25:53;10.00;99.90
45435;DHT22;31183;47.404;8.500;2023-11-21T08:28:21;10.00;99.90
45435;DHT22;31183;47.404;8.500;2023-11-21T08:30:52;10.00;99.90
45435;DHT22;31183;47.404;8.500;2023-11-21T08:33:20;10.10;99.90
45435;DHT22;31183;47.404;8.500;2023-11-21T08:35:47;10.10;99.90
45435;DHT22;31183;47.404;8.500;2023-11-21T08:38:14;10.10;99.90
45435;DHT22;31183;47.404;8.500;2023-11-21T08:40:41;10.10;99.90
45435;DHT22;31183;47.404;8.500;2023-11-21T08:43:07;10.00;99.90
45435;DHT22;31183;47.404;8.500;2023-11-21T08:45:34;10.10;99.90
45435;DHT22;31183;47.404;8.500;2023-11-21T08:48:01;10.10;99.90
45435;DHT22;31183;47.404;8.500;2023-11-21T08:50:29;10.10;99.90
45435;DHT22;31183;47.404;8.500;2023-11-21T08:52:55;10.10;99.90
45435;DHT22;31183;47.404;8.500;2023-11-21T08:55:22;10.10;99.90
45435;DHT22;31183;47.404;8.500;2023-11-21T08:57:49;10.20;99.90
45435;DHT22;31183;47.404;8.500;2023-11-21T09:00:16;10.30;99.90
45435;DHT22;31183;47.404;8.500;2023-11-21T09:02:44;10.40;99.90
45435;DHT22;31183;47.404;8.500;2023-11-21T09:05:13;10.60;99.90
45435;DHT22;31183;47.404;8.500;2023-11-21T09:07:41;10.60;99.90
45435;DHT22;31183;47.404;8.500;2023-11-21T09:10:08;10.70;99.90
45435;DHT22;31183;47.404;8.500;2023-11-21T09:12:37;10.70;99.90
45435;DHT22;31183;47.404;8.500;2023-11-21T09:15:05;10.60;99.90
45435;DHT22;31183;47.404;8.500;2023-11-21T09:17:35;10.60;99.90
45435;DHT22;31183;47.404;8.500;2023-11-21T09:20:03;10.60;99.90
45435;DHT22;31183;47.404;8.500;2023-11-21T09:22:33;10.60;99.90
45435;DHT22;31183;47.404;8.500;2023-11-21T09:25:00;10.60;99.90
45435;DHT22;31183;47.404;8.500;2023-11-21T09:27:26;10.50;99.90
45435;DHT22;31183;47.404;8.500;2023-11-21T09:29:53;10.50;99.90
45435;DHT22;31183;47.404;8.500;2023-11-21T09:32:20;10.50;99.90
45435;DHT22;31183;47.404;8.500;2023-11-21T09:34:49;10.40;99.90
45435;DHT22;31183;47.404;8.500;2023-11-21T09:37:16;10.40;99.90
45435;DHT22;31183;47.404;8.500;2023-11-21T09:39:43;10.50;99.90
45435;DHT22;31183;47.404;8.500;2023-11-21T09:42:12;10.50;99.90
45435;DHT22;31183;47.404;8.500;2023-11-21T09:44:51;10.50;99.90
45435;DHT22;31183;47.404;8.500;2023-11-21T09:47:25;10.50;99.90
45435;DHT22;31183;47.404;8.500;2023-11-21T09:49:54;10.40;99.90
45435;DHT22;31183;47.404;8.500;2023-11-21T09:52:25;10.30;99.90
45435;DHT22;31183;47.404;8.500;2023-11-21T09:54:53;10.30;99.90
45435;DHT22;31183;47.404;8.500;2023-11-21T09:57:20;10.30;99.90
45435;DHT22;31183;47.404;8.500;2023-11-21T09:59:54;10.20;99.90
45435;DHT22;31183;47.404;8.500;2023-11-21T10:02:27;10.20;99.90
45435;DHT22;31183;47.404;8.500;2023-11-21T10:04:56;10.20;99.90
45435;DHT22;31183;47.404;8.500;2023-11-21T10:07:23;10.20;99.90
45435;DHT22;31183;47.404;8.500;2023-11-21T10:09:51;10.20;99.90
45435;DHT22;31183;47.404;8.500;2023-11-21T10:12:20;10.20;99.90
45435;DHT22;31183;47.404;8.500;2023-11-21T10:14:49;10.30;99.90
45435;DHT22;31183;47.404;8.500;2023-11-21T10:17:19;10.30;99.90
45435;DHT22;31183;47.404;8.500;2023-11-21T10:19:47;10.30;99.90
45435;DHT22;31183;47.404;8.500;2023-11-21T10:22:17;10.30;99.90
45435;DHT22;31183;47.404;8.500;2023-11-21T10:24:46;10.30;99.90
45435;DHT22;31183;47.404;8.500;2023-11-21T10:27:19;10.40;99.90
45435;DHT22;31183;47.404;8.500;2023-11-21T10:29:46;10.50;99.90
45435;DHT22;31183;47.404;8.500;2023-11-21T10:32:12;10.50;99.90
45435;DHT22;31183;47.404;8.500;2023-11-21T10:34:39;10.50;99.90
45435;DHT22;31183;47.404;8.500;2023-11-21T10:37:12;10.50;99.90
45435;DHT22;31183;47.404;8.500;2023-11-21T10:39:39;10.50;99.90
45435;DHT22;31183;47.404;8.500;2023-11-21T10:42:08;10.50;99.90
45435;DHT22;31183;47.404;8.500;2023-11-21T10:44:35;10.50;99.90
45435;DHT22;31183;47.404;8.500;2023-11-21T10:47:02;10.50;99.90
45435;DHT22;31183;47.404;8.500;2023-11-21T10:49:29;10.40;99.90
45435;DHT22;31183;47.404;8.500;2023-11-21T10:51:56;10.40;99.90
45435;DHT22;31183;47.404;8.500;2023-11-21T10:54:24;10.50;99.90
45435;DHT22;31183;47.404;8.500;2023-11-21T10:56:58;10.50;99.90
45435;DHT22;31183;47.404;8.500;2023-11-21T10:59:29;10.50;99.90
45435;DHT22;31183;47.404;8.500;2023-11-21T11:01:57;10.50;99.90
45435;DHT22;31183;47.404;8.500;2023-11-21T11:04:27;10.50;99.90
45435;DHT22;31183;47.404;8.500;2023-11-21T11:07:03;10.50;99.90
45435;DHT22;31183;47.404;8.500;2023-11-21T11:09:32;10.50;99.90
45435;DHT22;31183;47.404;8.500;2023-11-21T11:12:02;10.60;99.90
45435;DHT22;31183;47.404;8.500;2023-11-21T11:14:31;10.70;99.90
45435;DHT22;31183;47.404;8.500;2023-11-21T11:16:59;10.70;99.90
45435;DHT22;31183;47.404;8.500;2023-11-21T11:19:28;10.80;99.90
45435;DHT22;31183;47.404;8.500;2023-11-21T11:22:25;10.90;99.90
45435;DHT22;31183;47.404;8.500;2023-11-21T11:25:18;11.00;99.90
45435;DHT22;31183;47.404;8.500;2023-11-21T11:28:03;11.10;99.90
45435;DHT22;31183;47.404;8.500;2023-11-21T11:36:47;11.30;99.90
45435;DHT22;31183;47.404;8.500;2023-11-21T11:39:33;11.40;99.90
45435;DHT22;31183;47.404;8.500;2023-11-21T11:42:03;11.40;99.90
45435;DHT22;31183;47.404;8.500;2023-11-21T11:47:16;11.70;99.90
45435;DHT22;31183;47.404;8.500;2023-11-21T11:50:06;11.70;99.90
45435;DHT22;31183;47.404;8.500;2023-11-21T11:52:42;11.70;99.90
45435;DHT22;31183;47.404;8.500;2023-11-21T11:55:14;11.70;99.90
45435;DHT22;31183;47.404;8.500;2023-11-21T11:57:42;11.60;99.90
45435;DHT22;31183;47.404;8.500;2023-11-21T12:02:57;11.40;99.90
45435;DHT22;31183;47.404;8.500;2023-11-21T12:05:26;11.20;99.90
45435;DHT22;31183;47.404;8.500;2023-11-21T12:08:03;11.20;99.90
45435;DHT22;31183;47.404;8.500;2023-11-21T12:10:34;11.20;99.90
45435;DHT22;31183;47.404;8.500;2023-11-21T12:13:05;11.20;99.90
45435;DHT22;31183;47.404;8.500;2023-11-21T12:15:37;11.20;99.90
45435;DHT22;31183;47.404;8.500;2023-11-21T12:18:05;11.20;99.90
45435;DHT22;31183;47.404;8.500;2023-11-21T12:20:32;11.30;99.90
45435;DHT22;31183;47.404;8.500;2023-11-21T12:23:05;11.30;99.90
45435;DHT22;31183;47.404;8.500;2023-11-21T12:25:32;11.40;99.90
45435;DHT22;31183;47.404;8.500;2023-11-21T12:28:00;11.40;99.90
45435;DHT22;31183;47.404;8.500;2023-11-21T12:30:29;11.40;99.90
45435;DHT22;31183;47.404;8.500;2023-11-21T12:32:59;11.40;99.90
45435;DHT22;31183;47.404;8.500;2023-11-21T12:35:32;11.40;99.90
45435;DHT22;31183;47.404;8.500;2023-11-21T12:38:03;11.40;99.90
45435;DHT22;31183;47.404;8.500;2023-11-21T12:40:30;11.40;99.90
45435;DHT22;31183;47.404;8.500;2023-11-21T12:42:58;11.30;99.90
45435;DHT22;31183;47.404;8.500;2023-11-21T12:45:27;11.40;99.90
45435;DHT22;31183;47.404;8.500;2023-11-21T12:50:31;11.40;99.90
45435;DHT22;31183;47.404;8.500;2023-11-21T12:53:08;11.40;99.90
45435;DHT22;31183;47.404;8.500;2023-11-21T12:55:39;11.40;99.90
45435;DHT22;31183;47.404;8.500;2023-11-21T12:58:08;11.40;99.90
45435;DHT22;31183;47.404;8.500;2023-11-21T13:00:45;11.40;99.90
45435;DHT22;31183;47.404;8.500;2023-11-21T13:03:14;11.40;99.90
45435;DHT22;31183;47.404;8.500;2023-11-21T13:05:47;11.50;99.90
45435;DHT22;31183;47.404;8.500;2023-11-21T13:08:18;11.60;99.90
45435;DHT22;31183;47.404;8.500;2023-11-21T13:10:51;11.50;99.90
45435;DHT22;31183;47.404;8.500;2023-11-21T13:13:18;11.50;99.90
45435;DHT22;31183;47.404;8.500;2023-11-21T13:15:59;11.50;99.90
45435;DHT22;31183;47.404;8.500;2023-11-21T13:18:32;11.50;99.90
45435;DHT22;31183;47.404;8.500;2023-11-21T13:21:01;11.50;99.90
45435;DHT22;31183;47.404;8.500;2023-11-21T13:23:34;11.50;99.90
45435;DHT22;31183;47.404;8.500;2023-11-21T13:26:02;11.40;99.90
45435;DHT22;31183;47.404;8.500;2023-11-21T13:28:33;11.30;99.90
45435;DHT22;31183;47.404;8.500;2023-11-21T13:31:01;11.30;99.90
45435;DHT22;31183;47.404;8.500;2023-11-21T13:33:51;11.20;99.90
45435;DHT22;31183;47.404;8.500;2023-11-21T13:36:23;11.20;99.90
45435;DHT22;31183;47.404;8.500;2023-11-21T13:38:51;11.20;99.90
45435;DHT22;31183;47.404;8.500;2023-11-21T13:41:21;11.20;99.90
45435;DHT22;31183;47.404;8.500;2023-11-21T13:43:54;11.20;99.90
45435;DHT22;31183;47.404;8.500;2023-11-21T13:46:29;11.10;99.90
45435;DHT22;31183;47.404;8.500;2023-11-21T13:49:03;11.10;99.90
45435;DHT22;31183;47.404;8.500;2023-11-21T13:51:32;11.00;99.90
45435;DHT22;31183;47.404;8.500;2023-11-21T13:54:06;11.00;99.90
45435;DHT22;31183;47.404;8.500;2023-11-21T13:56:37;11.00;99.90
45435;DHT22;31183;47.404;8.500;2023-11-21T13:59:03;10.90;99.90
45435;DHT22;31183;47.404;8.500;2023-11-21T14:01:46;10.90;99.90
45435;DHT22;31183;47.404;8.500;2023-11-21T14:04:24;10.90;99.90
45435;DHT22;31183;47.404;8.500;2023-11-21T14:06:57;10.90;99.90
45435;DHT22;31183;47.404;8.500;2023-11-21T14:09:27;11.00;99.90
45435;DHT22;31183;47.404;8.500;2023-11-21T14:12:00;10.90;99.90
45435;DHT22;31183;47.404;8.500;2023-11-21T14:14:29;10.90;99.90
45435;DHT22;31183;47.404;8.500;2023-11-21T14:16:56;10.90;99.90
45435;DHT22;31183;47.404;8.500;2023-11-21T14:19:23;10.90;99.90
45435;DHT22;31183;47.404;8.500;2023-11-21T14:21:54;11.00;99.90
45435;DHT22;31183;47.404;8.500;2023-11-21T14:24:21;11.00;99.90
45435;DHT22;31183;47.404;8.500;2023-11-21T14:26:50;11.00;99.90
45435;DHT22;31183;47.404;8.500;2023-11-21T14:29:18;11.00;99.90
45435;DHT22;31183;47.404;8.500;2023-11-21T14:31:47;11.00;99.90
45435;DHT22;31183;47.404;8.500;2023-11-21T14:34:14;11.00;99.90
45435;DHT22;31183;47.404;8.500;2023-11-21T14:36:46;11.00;99.90
45435;DHT22;31183;47.404;8.500;2023-11-21T14:39:12;11.00;99.90
45435;DHT22;31183;47.404;8.500;2023-11-21T14:41:55;11.00;99.90
45435;DHT22;31183;47.404;8.500;2023-11-21T14:44:25;11.00;99.90
45435;DHT22;31183;47.404;8.500;2023-11-21T14:46:59;11.00;99.90
45435;DHT22;31183;47.404;8.500;2023-11-21T14:49:27;11.00;99.90
45435;DHT22;31183;47.404;8.500;2023-11-21T14:51:59;11.00;99.90
45435;DHT22;31183;47.404;8.500;2023-11-21T14:54:31;11.00;99.90
45435;DHT22;31183;47.404;8.500;2023-11-21T14:57:08;11.00;99.90
45435;DHT22;31183;47.404;8.500;2023-11-21T14:59:42;11.00;99.90
45435;DHT22;31183;47.404;8.500;2023-11-21T15:02:09;11.00;99.90
45435;DHT22;31183;47.404;8.500;2023-11-21T15:04:42;11.00;99.90
45435;DHT22;31183;47.404;8.500;2023-11-21T15:07:10;10.90;99.90
45435;DHT22;31183;47.404;8.500;2023-11-21T15:09:38;10.90;99.90
45435;DHT22;31183;47.404;8.500;2023-11-21T15:12:09;10.90;99.90
45435;DHT22;31183;47.404;8.500;2023-11-21T15:14:49;10.90;99.90
45435;DHT22;31183;47.404;8.500;2023-11-21T15:17:20;10.90;99.90
45435;DHT22;31183;47.404;8.500;2023-11-21T15:19:51;10.90;99.90
45435;DHT22;31183;47.404;8.500;2023-11-21T15:22:18;10.90;99.90
45435;DHT22;31183;47.404;8.500;2023-11-21T15:24:45;10.90;99.90
45435;DHT22;31183;47.404;8.500;2023-11-21T15:27:14;10.90;99.90
45435;DHT22;31183;47.404;8.500;2023-11-21T15:29:43;10.80;99.90
45435;DHT22;31183;47.404;8.500;2023-11-21T15:32:10;10.90;99.90
45435;DHT22;31183;47.404;8.500;2023-11-21T15:34:38;10.80;99.90
45435;DHT22;31183;47.404;8.500;2023-11-21T15:37:06;10.80;99.90
45435;DHT22;31183;47.404;8.500;2023-11-21T15:39:36;10.80;99.90
45435;DHT22;31183;47.404;8.500;2023-11-21T15:42:03;10.80;99.90
45435;DHT22;31183;47.404;8.500;2023-11-21T15:44:31;10.80;99.90
45435;DHT22;31183;47.404;8.500;2023-11-21T15:46:59;10.80;99.90
45435;DHT22;31183;47.404;8.500;2023-11-21T15:49:26;10.80;99.90
45435;DHT22;31183;47.404;8.500;2023-11-21T15:51:54;10.80;99.90
45435;DHT22;31183;47.404;8.500;2023-11-21T15:54:25;10.80;99.90
45435;DHT22;31183;47.404;8.500;2023-11-21T15:56:54;10.80;99.90